createdAt,value
2023-11-01T00:04:57.085Z,1012.1
2023-11-01T00:11:02.607Z,1012.1
2023-11-01T00:17:08.249Z,1012.1
2023-11-01T00:23:13.553Z,1012.1
2023-11-01T00:29:19.391Z,1012.1
2023-11-01T00:35:24.917Z,1012
2023-11-01T00:41:31.167Z,1012
2023-11-01T00:47:37.120Z,1012
2023-11-01T00:53:43.357Z,1012
2023-11-01T00:59:49.023Z,1012
2023-11-01T01:05:54.660Z,1011.9
2023-11-01T01:12:00.768Z,1012
2023-11-01T01:18:06.678Z,1011.9
2023-11-01T01:24:13.173Z,1011.8
2023-11-01T01:30:18.802Z,1011.8
2023-11-01T01:36:23.906Z,1011.7
2023-11-01T01:42:29.676Z,1011.7
2023-11-01T01:48:35.248Z,1011.6
2023-11-01T01:54:41.234Z,1011.5
2023-11-01T02:00:46.866Z,1011.4
2023-11-01T02:06:52.836Z,1011.4
2023-11-01T02:12:57.961Z,1011.3
2023-11-01T02:19:03.945Z,1011.3
2023-11-01T02:25:09.909Z,1011.3
2023-11-01T02:31:15.749Z,1011.2
2023-11-01T02:37:21.896Z,1011.1
2023-11-01T02:43:27.168Z,1011.1
2023-11-01T02:49:32.464Z,1011.1
2023-11-01T02:55:38.402Z,1011
2023-11-01T03:01:44.491Z,1011
2023-11-01T03:07:50.583Z,1010.9
2023-11-01T03:13:56.156Z,1010.8
2023-11-01T03:20:01.370Z,1010.8
2023-11-01T03:26:07.092Z,1010.8
2023-11-01T03:32:12.674Z,1010.8
2023-11-01T03:38:18.562Z,1010.8
2023-11-01T03:44:24.472Z,1010.8
2023-11-01T03:50:30.603Z,1010.8
2023-11-01T03:56:36.838Z,1010.7
2023-11-01T04:02:42.474Z,1010.7
2023-11-01T04:08:48.175Z,1010.7
2023-11-01T04:14:54.143Z,1010.6
2023-11-01T04:21:00.534Z,1010.5
2023-11-01T04:27:06.169Z,1010.4
2023-11-01T04:33:11.960Z,1010.4
2023-11-01T04:39:17.852Z,1010.4
2023-11-01T04:45:23.024Z,1010.4
2023-11-01T04:51:29.066Z,1010.3
2023-11-01T04:57:34.635Z,1010.3
2023-11-01T05:03:40.848Z,1010.2
2023-11-01T05:09:47.161Z,1010.1
2023-11-01T05:15:53.004Z,1010
2023-11-01T05:21:58.723Z,1009.9
2023-11-01T05:28:04.985Z,1009.9
2023-11-01T05:34:11.320Z,1009.9
2023-11-01T05:40:16.883Z,1009.8
2023-11-01T05:46:23.124Z,1009.8
2023-11-01T05:52:28.092Z,1009.7
2023-11-01T05:58:34.015Z,1009.8
2023-11-01T06:04:39.159Z,1009.8
2023-11-01T06:10:44.579Z,1009.8
2023-11-01T06:16:50.018Z,1009.7
2023-11-01T06:22:55.265Z,1009.7
2023-11-01T06:29:01.098Z,1009.7
2023-11-01T06:35:06.439Z,1009.7
2023-11-01T06:41:12.422Z,1009.8
2023-11-01T06:47:17.699Z,1009.8
2023-11-01T06:53:23.962Z,1009.8
2023-11-01T06:59:29.347Z,1009.7
2023-11-01T07:05:35.555Z,1009.7
2023-11-01T07:11:40.934Z,1009.7
2023-11-01T07:17:46.757Z,1009.7
2023-11-01T07:23:52.501Z,1009.6
2023-11-01T07:29:58.424Z,1009.5
2023-11-01T07:36:04.008Z,1009.6
2023-11-01T07:42:10.052Z,1009.6
2023-11-01T07:48:15.843Z,1009.6
2023-11-01T07:54:21.742Z,1009.5
2023-11-01T08:00:26.921Z,1009.4
2023-11-01T08:06:32.471Z,1009.3
2023-11-01T08:12:37.535Z,1009.2
2023-11-01T08:18:43.214Z,1009.1
2023-11-01T08:24:48.842Z,1009.1
2023-11-01T08:30:53.817Z,1009
2023-11-01T08:36:59.422Z,1008.9
2023-11-01T08:43:04.924Z,1008.9
2023-11-01T08:49:19.688Z,1008.9
2023-11-01T08:55:26.288Z,1008.9
2023-11-01T09:01:35.337Z,1008.8
2023-11-01T09:07:42.141Z,1008.7
2023-11-01T09:13:48.331Z,1008.7
2023-11-01T09:19:54.194Z,1008.7
2023-11-01T09:25:59.690Z,1008.7
2023-11-01T09:32:05.889Z,1008.6
2023-11-01T09:38:12.120Z,1008.6
2023-11-01T09:44:17.474Z,1008.6
2023-11-01T09:50:23.261Z,1008.6
2023-11-01T09:56:29.406Z,1008.6
2023-11-01T10:02:36.259Z,1008.5
2023-11-01T10:08:42.261Z,1008.5
2023-11-01T10:14:48.796Z,1008.3
2023-11-01T10:20:55.210Z,1008.2
2023-11-01T10:27:02.215Z,1008.1
2023-11-01T10:33:08.519Z,1007.9
2023-11-01T10:39:14.233Z,1007.8
2023-11-01T10:45:19.380Z,1007.7
2023-11-01T10:51:25.305Z,1007.6
2023-11-01T10:57:30.685Z,1007.4
2023-11-01T11:03:37.025Z,1007.3
2023-11-01T11:09:43.459Z,1007.2
2023-11-01T11:15:49.165Z,1007.2
2023-11-01T11:21:55.892Z,1007.3
2023-11-01T11:28:01.497Z,1007.4
2023-11-01T11:34:06.438Z,1007.3
2023-11-01T11:40:11.954Z,1007.2
2023-11-01T11:46:17.762Z,1007.2
2023-11-01T11:52:23.518Z,1007.1
2023-11-01T11:58:30.520Z,1007.1
2023-11-01T12:04:42.464Z,1007
2023-11-01T12:10:47.799Z,1006.9
2023-11-01T12:16:53.629Z,1006.7
2023-11-01T12:22:59.556Z,1006.7
2023-11-01T12:29:05.417Z,1006.6
2023-11-01T12:35:10.763Z,1006.5
2023-11-01T12:41:17.072Z,1006.4
2023-11-01T12:47:22.477Z,1006.3
2023-11-01T12:53:28.515Z,1006.2
2023-11-01T12:59:33.925Z,1006.3
2023-11-01T13:05:39.886Z,1006.2
2023-11-01T13:11:45.668Z,1006.1
2023-11-01T13:17:52.438Z,1006
2023-11-01T13:23:57.997Z,1006
2023-11-01T13:30:03.788Z,1006
2023-11-01T13:36:10.139Z,1005.9
2023-11-01T13:42:18.964Z,1005.8
2023-11-01T13:48:26.435Z,1005.8
2023-11-01T13:54:32.995Z,1005.8
2023-11-01T14:00:38.968Z,1005.8
2023-11-01T14:06:45.148Z,1005.7
2023-11-01T14:12:51.360Z,1005.6
2023-11-01T14:18:56.806Z,1005.4
2023-11-01T14:25:02.546Z,1005.5
2023-11-01T14:31:08.256Z,1005.4
2023-11-01T14:37:13.841Z,1005.4
2023-11-01T14:43:19.669Z,1005.4
2023-11-01T14:49:24.792Z,1005.3
2023-11-01T14:55:30.376Z,1005.2
2023-11-01T15:01:37.284Z,1005.1
2023-11-01T15:07:43.217Z,1005.2
2023-11-01T15:13:49.324Z,1005.3
2023-11-01T15:19:54.577Z,1005.2
2023-11-01T15:25:59.872Z,1005.2
2023-11-01T15:32:05.713Z,1005.1
2023-11-01T15:38:11.061Z,1005.1
2023-11-01T15:44:17.008Z,1005
2023-11-01T15:50:22.141Z,1004.9
2023-11-01T15:56:28.152Z,1004.9
2023-11-01T16:02:34.655Z,1004.9
2023-11-01T16:08:40.827Z,1004.9
2023-11-01T16:14:46.566Z,1004.8
2023-11-01T16:20:52.517Z,1004.7
2023-11-01T16:26:58.014Z,1004.7
2023-11-01T16:33:04.954Z,1004.7
2023-11-01T16:39:10.137Z,1004.8
2023-11-01T16:45:15.621Z,1004.8
2023-11-01T16:51:21.262Z,1004.8
2023-11-01T16:57:26.956Z,1004.8
2023-11-01T17:03:33.053Z,1004.9
2023-11-01T17:09:39.749Z,1005
2023-11-01T17:15:45.117Z,1005
2023-11-01T17:21:51.094Z,1005.1
2023-11-01T17:27:56.461Z,1005.1
2023-11-01T17:34:01.717Z,1005.1
2023-11-01T17:40:07.071Z,1005.2
2023-11-01T17:46:12.222Z,1005.1
2023-11-01T17:52:17.534Z,1005.1
2023-11-01T17:58:26.994Z,1005.2
2023-11-01T18:04:33.707Z,1005.1
2023-11-01T18:10:39.403Z,1005.1
2023-11-01T18:16:44.951Z,1005
2023-11-01T18:22:51.111Z,1005
2023-11-01T18:28:56.184Z,1004.8
2023-11-01T18:35:03.510Z,1004.8
2023-11-01T18:41:11.673Z,1004.8
2023-11-01T18:47:18.636Z,1004.9
2023-11-01T18:53:24.918Z,1004.9
2023-11-01T18:59:30.610Z,1004.9
2023-11-01T19:05:37.101Z,1005.1
2023-11-01T19:11:41.865Z,1005.2
2023-11-01T19:17:47.917Z,1005
2023-11-01T19:23:53.764Z,1004.6
2023-11-01T19:29:59.494Z,1004.6
2023-11-01T19:36:16.658Z,1004.9
2023-11-01T19:42:24.161Z,1004.9
2023-11-01T19:48:32.436Z,1005
2023-11-01T19:54:38.256Z,1004.9
2023-11-01T20:00:44.171Z,1004.7
2023-11-01T20:06:52.184Z,1004.7
2023-11-01T20:13:02.297Z,1004.6
2023-11-01T20:19:07.897Z,1004.6
2023-11-01T20:25:13.171Z,1004.6
2023-11-01T20:31:18.686Z,1004.6
2023-11-01T20:37:24.789Z,1004.5
2023-11-01T20:43:30.823Z,1004.6
2023-11-01T20:49:36.559Z,1004.6
2023-11-01T20:55:42.793Z,1004.4
2023-11-01T21:01:48.493Z,1004.5
2023-11-01T21:07:54.287Z,1004.6
2023-11-01T21:14:00.046Z,1004.8
2023-11-01T21:20:05.218Z,1004.7
2023-11-01T21:26:11.069Z,1004.6
2023-11-01T21:32:16.034Z,1004.6
2023-11-01T21:38:21.329Z,1004.7
2023-11-01T21:44:27.213Z,1004.5
2023-11-01T21:50:32.143Z,1004.4
2023-11-01T21:56:37.701Z,1004.4
2023-11-01T22:02:43.344Z,1004.5
2023-11-01T22:08:48.845Z,1004.5
2023-11-01T22:14:54.677Z,1004.4
2023-11-01T22:21:00.617Z,1004.3
2023-11-01T22:27:06.346Z,1004.2
2023-11-01T22:33:12.024Z,1004.1
2023-11-01T22:39:18.133Z,1004
2023-11-01T22:45:23.142Z,1003.9
2023-11-01T22:51:28.302Z,1003.9
2023-11-01T22:57:34.201Z,1003.8
2023-11-01T23:03:40.453Z,1003.7
2023-11-01T23:09:46.782Z,1003.6
2023-11-01T23:15:51.539Z,1003.5
2023-11-01T23:21:57.586Z,1003.3
2023-11-01T23:28:02.950Z,1003.2
2023-11-01T23:34:08.572Z,1003
2023-11-01T23:40:14.044Z,1003.1
2023-11-01T23:46:20.227Z,1003
2023-11-01T23:52:25.233Z,1002.9
2023-11-01T23:58:31.359Z,1002.9
